sensor_id;sensor_type;location;lat;lon;timestamp;pressure;altitude;pressure_sealevel;temperature;humidity
37170;BME280;23062;13.952;100.608;2023-09-12T00:00:11;1008.97;;;30.57;74.33
37170;BME280;23062;13.952;100.608;2023-09-12T00:04:55;1009.06;;;30.59;74.16
37170;BME280;23062;13.952;100.608;2023-09-12T00:09:39;1009.08;;;30.61;73.94
37170;BME280;23062;13.952;100.608;2023-09-12T00:14:17;1009.17;;;30.62;73.70
37170;BME280;23062;13.952;100.608;2023-09-12T00:19:00;1009.24;;;30.60;73.87
37170;BME280;23062;13.952;100.608;2023-09-12T00:23:44;1009.30;;;30.62;73.60
37170;BME280;23062;13.952;100.608;2023-09-12T00:28:29;1009.29;;;30.63;73.47
37170;BME280;23062;13.952;100.608;2023-09-12T00:33:13;1009.39;;;30.64;73.31
37170;BME280;23062;13.952;100.608;2023-09-12T00:37:59;1009.44;;;30.64;73.32
37170;BME280;23062;13.952;100.608;2023-09-12T00:42:42;1009.51;;;30.67;73.30
37170;BME280;23062;13.952;100.608;2023-09-12T00:47:19;1009.59;;;30.67;73.29
37170;BME280;23062;13.952;100.608;2023-09-12T00:52:05;1009.69;;;30.68;73.35
37170;BME280;23062;13.952;100.608;2023-09-12T00:56:50;1009.71;;;30.68;73.03
37170;BME280;23062;13.952;100.608;2023-09-12T01:01:34;1009.77;;;30.70;72.91
37170;BME280;23062;13.952;100.608;2023-09-12T01:06:19;1009.87;;;30.70;72.55
37170;BME280;23062;13.952;100.608;2023-09-12T01:11:03;1010.06;;;30.69;72.03
37170;BME280;23062;13.952;100.608;2023-09-12T01:15:47;1010.09;;;30.66;70.56
37170;BME280;23062;13.952;100.608;2023-09-12T01:20:32;1010.14;;;30.65;69.94
37170;BME280;23062;13.952;100.608;2023-09-12T01:25:50;1010.23;;;30.55;69.67
37170;BME280;23062;13.952;100.608;2023-09-12T01:30:24;1010.30;;;30.55;69.69
37170;BME280;23062;13.952;100.608;2023-09-12T01:35:09;1010.36;;;30.53;69.82
37170;BME280;23062;13.952;100.608;2023-09-12T01:39:54;1010.39;;;30.50;69.85
37170;BME280;23062;13.952;100.608;2023-09-12T01:44:31;1010.43;;;30.51;70.10
37170;BME280;23062;13.952;100.608;2023-09-12T01:49:17;1010.42;;;30.52;70.22
37170;BME280;23062;13.952;100.608;2023-09-12T01:54:03;1010.48;;;30.53;70.22
37170;BME280;23062;13.952;100.608;2023-09-12T01:58:47;1010.49;;;30.56;69.80
37170;BME280;23062;13.952;100.608;2023-09-12T02:03:32;1010.56;;;30.58;70.03
37170;BME280;23062;13.952;100.608;2023-09-12T02:08:08;1010.69;;;30.60;70.18
37170;BME280;23062;13.952;100.608;2023-09-12T02:12:53;1010.65;;;30.62;69.66
37170;BME280;23062;13.952;100.608;2023-09-12T02:17:37;1010.66;;;30.64;69.69
37170;BME280;23062;13.952;100.608;2023-09-12T02:22:21;1010.68;;;30.64;69.46
37170;BME280;23062;13.952;100.608;2023-09-12T02:27:04;1010.65;;;30.67;69.27
37170;BME280;23062;13.952;100.608;2023-09-12T02:31:49;1010.62;;;30.68;69.08
37170;BME280;23062;13.952;100.608;2023-09-12T02:36:33;1010.73;;;30.70;68.57
37170;BME280;23062;13.952;100.608;2023-09-12T02:41:10;1010.75;;;30.71;67.61
37170;BME280;23062;13.952;100.608;2023-09-12T02:45:48;1010.79;;;30.70;67.53
37170;BME280;23062;13.952;100.608;2023-09-12T02:50:30;1010.77;;;30.73;67.12
37170;BME280;23062;13.952;100.608;2023-09-12T02:55:09;1010.80;;;30.77;66.62
37170;BME280;23062;13.952;100.608;2023-09-12T02:59:47;1010.87;;;30.79;67.19
37170;BME280;23062;13.952;100.608;2023-09-12T03:04:35;1010.84;;;30.81;66.95
37170;BME280;23062;13.952;100.608;2023-09-12T03:09:10;1010.85;;;30.86;66.98
37170;BME280;23062;13.952;100.608;2023-09-12T03:13:48;1010.74;;;30.88;67.01
37170;BME280;23062;13.952;100.608;2023-09-12T03:18:33;1010.71;;;30.91;66.71
37170;BME280;23062;13.952;100.608;2023-09-12T03:23:17;1010.71;;;30.94;66.60
37170;BME280;23062;13.952;100.608;2023-09-12T03:27:59;1010.77;;;30.97;66.95
37170;BME280;23062;13.952;100.608;2023-09-12T03:32:38;1010.81;;;31.01;66.79
37170;BME280;23062;13.952;100.608;2023-09-12T03:37:24;1010.67;;;31.02;66.70
37170;BME280;23062;13.952;100.608;2023-09-12T03:42:07;1010.65;;;31.03;66.56
37170;BME280;23062;13.952;100.608;2023-09-12T03:46:45;1010.59;;;31.05;66.13
37170;BME280;23062;13.952;100.608;2023-09-12T03:51:28;1010.60;;;31.06;65.81
37170;BME280;23062;13.952;100.608;2023-09-12T03:56:09;1010.43;;;31.06;65.58
37170;BME280;23062;13.952;100.608;2023-09-12T04:00:55;1010.43;;;31.05;65.34
37170;BME280;23062;13.952;100.608;2023-09-12T04:05:40;1010.43;;;31.05;65.32
37170;BME280;23062;13.952;100.608;2023-09-12T04:10:24;1010.40;;;31.04;65.32
37170;BME280;23062;13.952;100.608;2023-09-12T04:15:10;1010.32;;;31.05;64.92
37170;BME280;23062;13.952;100.608;2023-09-12T04:19:46;1010.25;;;31.03;65.54
37170;BME280;23062;13.952;100.608;2023-09-12T04:24:31;1010.26;;;31.07;66.02
37170;BME280;23062;13.952;100.608;2023-09-12T04:29:14;1010.23;;;31.08;66.48
37170;BME280;23062;13.952;100.608;2023-09-12T04:33:52;1010.20;;;31.11;66.71
37170;BME280;23062;13.952;100.608;2023-09-12T04:38:36;1010.03;;;31.10;66.92
37170;BME280;23062;13.952;100.608;2023-09-12T04:43:20;1009.93;;;31.11;67.34
37170;BME280;23062;13.952;100.608;2023-09-12T04:48:05;1009.80;;;31.13;67.43
37170;BME280;23062;13.952;100.608;2023-09-12T04:52:50;1009.82;;;31.15;67.30
37170;BME280;23062;13.952;100.608;2023-09-12T04:57:35;1009.73;;;31.19;66.82
37170;BME280;23062;13.952;100.608;2023-09-12T05:02:18;1009.67;;;31.27;66.40
37170;BME280;23062;13.952;100.608;2023-09-12T05:07:01;1009.59;;;31.31;65.01
37170;BME280;23062;13.952;100.608;2023-09-12T05:11:38;1009.45;;;31.33;64.89
37170;BME280;23062;13.952;100.608;2023-09-12T05:16:22;1009.35;;;31.37;64.90
37170;BME280;23062;13.952;100.608;2023-09-12T05:21:05;1009.30;;;31.36;64.48
37170;BME280;23062;13.952;100.608;2023-09-12T05:25:43;1009.30;;;31.39;64.41
37170;BME280;23062;13.952;100.608;2023-09-12T05:30:20;1009.17;;;31.36;64.53
37170;BME280;23062;13.952;100.608;2023-09-12T05:35:06;1009.08;;;31.38;63.99
37170;BME280;23062;13.952;100.608;2023-09-12T05:39:50;1009.05;;;31.43;64.24
37170;BME280;23062;13.952;100.608;2023-09-12T05:44:34;1009.01;;;31.43;64.24
37170;BME280;23062;13.952;100.608;2023-09-12T05:49:13;1008.88;;;31.47;64.31
37170;BME280;23062;13.952;100.608;2023-09-12T05:53:58;1008.82;;;31.48;64.49
37170;BME280;23062;13.952;100.608;2023-09-12T05:58:43;1008.71;;;31.51;64.40
37170;BME280;23062;13.952;100.608;2023-09-12T06:03:28;1008.58;;;31.52;64.17
37170;BME280;23062;13.952;100.608;2023-09-12T06:08:12;1008.60;;;31.54;63.46
37170;BME280;23062;13.952;100.608;2023-09-12T06:12:56;1008.45;;;31.54;63.20
37170;BME280;23062;13.952;100.608;2023-09-12T06:17:40;1008.38;;;31.58;63.34
37170;BME280;23062;13.952;100.608;2023-09-12T06:22:25;1008.22;;;31.54;63.41
37170;BME280;23062;13.952;100.608;2023-09-12T06:27:10;1008.30;;;31.59;63.26
37170;BME280;23062;13.952;100.608;2023-09-12T06:31:58;1008.22;;;31.59;62.87
37170;BME280;23062;13.952;100.608;2023-09-12T06:36:39;1008.20;;;31.55;62.71
37170;BME280;23062;13.952;100.608;2023-09-12T06:41:24;1008.19;;;31.55;62.56
37170;BME280;23062;13.952;100.608;2023-09-12T06:46:02;1008.15;;;31.59;62.34
37170;BME280;23062;13.952;100.608;2023-09-12T06:50:42;1008.10;;;31.60;62.07
37170;BME280;23062;13.952;100.608;2023-09-12T06:55:26;1008.02;;;31.59;62.21
37170;BME280;23062;13.952;100.608;2023-09-12T07:00:12;1007.99;;;31.58;62.25
37170;BME280;23062;13.952;100.608;2023-09-12T07:04:55;1007.86;;;31.58;62.07
37170;BME280;23062;13.952;100.608;2023-09-12T07:09:35;1007.77;;;31.59;61.94
37170;BME280;23062;13.952;100.608;2023-09-12T07:14:11;1007.70;;;31.59;61.65
37170;BME280;23062;13.952;100.608;2023-09-12T07:18:48;1007.62;;;31.59;61.51
37170;BME280;23062;13.952;100.608;2023-09-12T07:23:31;1007.52;;;31.60;61.58
37170;BME280;23062;13.952;100.608;2023-09-12T07:28:08;1007.47;;;31.59;61.91
37170;BME280;23062;13.952;100.608;2023-09-12T07:32:52;1007.50;;;31.61;62.23
37170;BME280;23062;13.952;100.608;2023-09-12T07:37:36;1007.43;;;31.64;62.23
37170;BME280;23062;13.952;100.608;2023-09-12T07:42:12;1007.43;;;31.64;62.27
37170;BME280;23062;13.952;100.608;2023-09-12T07:46:56;1007.37;;;31.62;62.19
37170;BME280;23062;13.952;100.608;2023-09-12T07:51:41;1007.28;;;31.62;62.36
37170;BME280;23062;13.952;100.608;2023-09-12T07:56:17;1007.18;;;31.63;62.50
37170;BME280;23062;13.952;100.608;2023-09-12T08:01:09;1007.15;;;31.65;62.80
37170;BME280;23062;13.952;100.608;2023-09-12T08:05:56;1007.17;;;31.65;62.93
37170;BME280;23062;13.952;100.608;2023-09-12T08:10:40;1007.12;;;31.65;62.93
37170;BME280;23062;13.952;100.608;2023-09-12T08:15:21;1007.15;;;31.66;62.83
37170;BME280;23062;13.952;100.608;2023-09-12T08:19:58;1007.37;;;31.65;62.92
37170;BME280;23062;13.952;100.608;2023-09-12T08:24:41;1007.39;;;31.61;65.38
37170;BME280;23062;13.952;100.608;2023-09-12T08:29:23;1007.33;;;31.58;67.29
37170;BME280;23062;13.952;100.608;2023-09-12T08:34:00;1007.20;;;31.56;68.64
37170;BME280;23062;13.952;100.608;2023-09-12T08:38:43;1007.23;;;31.49;69.37
37170;BME280;23062;13.952;100.608;2023-09-12T08:43:27;1007.23;;;31.43;69.26
37170;BME280;23062;13.952;100.608;2023-09-12T08:48:05;1007.22;;;31.42;68.93
37170;BME280;23062;13.952;100.608;2023-09-12T08:52:43;1007.11;;;31.41;68.98
37170;BME280;23062;13.952;100.608;2023-09-12T08:57:23;1006.98;;;31.40;69.34
37170;BME280;23062;13.952;100.608;2023-09-12T09:02:01;1006.91;;;31.42;69.33
37170;BME280;23062;13.952;100.608;2023-09-12T09:06:46;1006.80;;;31.42;69.31
37170;BME280;23062;13.952;100.608;2023-09-12T09:11:26;1006.80;;;31.44;69.00
37170;BME280;23062;13.952;100.608;2023-09-12T09:16:17;1006.79;;;31.41;68.57
37170;BME280;23062;13.952;100.608;2023-09-12T09:21:28;1006.68;;;31.42;68.36
37170;BME280;23062;13.952;100.608;2023-09-12T09:25:52;1006.70;;;31.41;68.21
37170;BME280;23062;13.952;100.608;2023-09-12T09:30:50;1006.70;;;31.40;67.88
37170;BME280;23062;13.952;100.608;2023-09-12T09:35:27;1006.66;;;31.38;67.79
37170;BME280;23062;13.952;100.608;2023-09-12T09:40:05;1006.68;;;31.41;67.42
37170;BME280;23062;13.952;100.608;2023-09-12T09:44:48;1006.77;;;31.38;67.13
37170;BME280;23062;13.952;100.608;2023-09-12T09:49:25;1006.83;;;31.39;67.11
37170;BME280;23062;13.952;100.608;2023-09-12T09:54:09;1006.89;;;31.39;67.03
37170;BME280;23062;13.952;100.608;2023-09-12T09:58:55;1006.82;;;31.38;66.77
37170;BME280;23062;13.952;100.608;2023-09-12T10:03:31;1006.85;;;31.38;66.11
37170;BME280;23062;13.952;100.608;2023-09-12T10:08:10;1006.93;;;31.37;66.17
37170;BME280;23062;13.952;100.608;2023-09-12T10:12:59;1006.91;;;31.36;66.25
37170;BME280;23062;13.952;100.608;2023-09-12T10:17:40;1006.96;;;31.38;66.15
37170;BME280;23062;13.952;100.608;2023-09-12T10:22:46;1007.07;;;31.37;66.16
37170;BME280;23062;13.952;100.608;2023-09-12T10:27:21;1007.07;;;31.34;66.06
37170;BME280;23062;13.952;100.608;2023-09-12T10:31:58;1007.03;;;31.35;65.86
37170;BME280;23062;13.952;100.608;2023-09-12T10:36:42;1007.14;;;31.33;65.80
37170;BME280;23062;13.952;100.608;2023-09-12T10:41:26;1007.25;;;31.32;66.01
37170;BME280;23062;13.952;100.608;2023-09-12T10:46:09;1007.42;;;31.32;66.20
37170;BME280;23062;13.952;100.608;2023-09-12T10:50:51;1007.52;;;31.30;66.31
37170;BME280;23062;13.952;100.608;2023-09-12T10:55:34;1007.55;;;31.29;65.92
37170;BME280;23062;13.952;100.608;2023-09-12T11:00:21;1007.68;;;31.28;65.60
37170;BME280;23062;13.952;100.608;2023-09-12T11:10:19;1007.74;;;31.24;65.87
37170;BME280;23062;13.952;100.608;2023-09-12T11:15:05;1007.80;;;31.23;65.78
37170;BME280;23062;13.952;100.608;2023-09-12T11:19:48;1007.85;;;31.24;65.20
37170;BME280;23062;13.952;100.608;2023-09-12T11:24:42;1007.86;;;31.23;65.09
37170;BME280;23062;13.952;100.608;2023-09-12T11:29:20;1007.92;;;31.20;64.86
37170;BME280;23062;13.952;100.608;2023-09-12T11:34:00;1008.08;;;31.22;64.75
37170;BME280;23062;13.952;100.608;2023-09-12T11:38:46;1008.09;;;31.19;64.45
37170;BME280;23062;13.952;100.608;2023-09-12T11:43:30;1008.27;;;31.17;64.43
37170;BME280;23062;13.952;100.608;2023-09-12T11:48:09;1008.32;;;31.17;64.34
37170;BME280;23062;13.952;100.608;2023-09-12T11:53:09;1008.47;;;31.15;64.17
37170;BME280;23062;13.952;100.608;2023-09-12T11:57:48;1008.52;;;31.12;64.47
37170;BME280;23062;13.952;100.608;2023-09-12T12:02:34;1008.56;;;31.11;64.69
37170;BME280;23062;13.952;100.608;2023-09-12T12:07:16;1008.63;;;31.12;64.78
37170;BME280;23062;13.952;100.608;2023-09-12T12:12:14;1008.76;;;31.12;64.77
37170;BME280;23062;13.952;100.608;2023-09-12T12:16:53;1008.82;;;31.19;65.06
37170;BME280;23062;13.952;100.608;2023-09-12T12:21:36;1008.84;;;31.26;65.35
37170;BME280;23062;13.952;100.608;2023-09-12T12:26:17;1008.89;;;31.33;65.56
37170;BME280;23062;13.952;100.608;2023-09-12T12:31:02;1008.99;;;31.42;65.84
37170;BME280;23062;13.952;100.608;2023-09-12T12:35:58;1008.95;;;31.35;66.06
37170;BME280;23062;13.952;100.608;2023-09-12T12:40:37;1009.00;;;31.34;66.27
37170;BME280;23062;13.952;100.608;2023-09-12T12:45:19;1009.06;;;31.35;66.34
37170;BME280;23062;13.952;100.608;2023-09-12T12:50:14;1009.16;;;31.34;66.29
37170;BME280;23062;13.952;100.608;2023-09-12T12:55:08;1009.16;;;31.31;66.08
37170;BME280;23062;13.952;100.608;2023-09-12T12:59:55;1009.18;;;31.33;66.12
37170;BME280;23062;13.952;100.608;2023-09-12T13:04:40;1009.25;;;31.35;66.14
37170;BME280;23062;13.952;100.608;2023-09-12T13:09:28;1009.36;;;31.35;66.15
37170;BME280;23062;13.952;100.608;2023-09-12T13:14:09;1009.36;;;31.37;66.15
37170;BME280;23062;13.952;100.608;2023-09-12T13:18:50;1009.44;;;31.37;66.16
37170;BME280;23062;13.952;100.608;2023-09-12T13:23:31;1009.50;;;31.38;66.14
37170;BME280;23062;13.952;100.608;2023-09-12T13:28:11;1009.52;;;31.38;66.09
37170;BME280;23062;13.952;100.608;2023-09-12T13:32:55;1009.54;;;31.40;65.64
37170;BME280;23062;13.952;100.608;2023-09-12T13:37:35;1009.64;;;31.40;65.25
37170;BME280;23062;13.952;100.608;2023-09-12T13:42:26;1009.66;;;31.39;65.23
37170;BME280;23062;13.952;100.608;2023-09-12T13:47:10;1009.72;;;31.41;65.06
37170;BME280;23062;13.952;100.608;2023-09-12T13:51:53;1009.75;;;31.41;65.14
37170;BME280;23062;13.952;100.608;2023-09-12T13:56:32;1009.80;;;31.41;65.14
37170;BME280;23062;13.952;100.608;2023-09-12T14:01:21;1009.85;;;31.40;65.04
37170;BME280;23062;13.952;100.608;2023-09-12T14:06:08;1009.95;;;31.41;65.05
37170;BME280;23062;13.952;100.608;2023-09-12T14:10:55;1009.98;;;31.37;65.16
37170;BME280;23062;13.952;100.608;2023-09-12T14:15:42;1010.19;;;31.36;65.14
37170;BME280;23062;13.952;100.608;2023-09-12T14:20:28;1010.27;;;31.38;65.06
37170;BME280;23062;13.952;100.608;2023-09-12T14:25:13;1010.31;;;31.36;64.89
37170;BME280;23062;13.952;100.608;2023-09-12T14:30:00;1010.38;;;31.35;64.77
37170;BME280;23062;13.952;100.608;2023-09-12T14:34:46;1010.51;;;31.35;64.70
37170;BME280;23062;13.952;100.608;2023-09-12T14:39:34;1010.55;;;31.32;64.61
37170;BME280;23062;13.952;100.608;2023-09-12T14:44:24;1010.64;;;31.31;64.61
37170;BME280;23062;13.952;100.608;2023-09-12T14:49:11;1010.80;;;31.31;64.31
37170;BME280;23062;13.952;100.608;2023-09-12T14:53:49;1010.85;;;31.30;64.17
37170;BME280;23062;13.952;100.608;2023-09-12T14:58:27;1010.89;;;31.30;64.08
37170;BME280;23062;13.952;100.608;2023-09-12T15:03:11;1010.85;;;31.27;64.05
37170;BME280;23062;13.952;100.608;2023-09-12T15:07:55;1010.89;;;31.27;64.01
37170;BME280;23062;13.952;100.608;2023-09-12T15:12:33;1010.81;;;31.26;63.88
37170;BME280;23062;13.952;100.608;2023-09-12T15:17:16;1010.71;;;31.24;63.79
37170;BME280;23062;13.952;100.608;2023-09-12T15:22:00;1010.67;;;31.25;63.71
37170;BME280;23062;13.952;100.608;2023-09-12T15:26:38;1010.72;;;31.23;63.65
37170;BME280;23062;13.952;100.608;2023-09-12T15:31:22;1010.82;;;31.24;63.62
37170;BME280;23062;13.952;100.608;2023-09-12T15:36:05;1010.83;;;31.24;63.37
37170;BME280;23062;13.952;100.608;2023-09-12T15:40:48;1010.72;;;31.19;63.27
37170;BME280;23062;13.952;100.608;2023-09-12T15:45:29;1010.71;;;31.21;63.31
37170;BME280;23062;13.952;100.608;2023-09-12T15:50:05;1010.69;;;31.20;63.08
37170;BME280;23062;13.952;100.608;2023-09-12T15:54:42;1010.64;;;31.21;62.99
37170;BME280;23062;13.952;100.608;2023-09-12T15:59:25;1010.53;;;31.20;62.93
37170;BME280;23062;13.952;100.608;2023-09-12T16:04:09;1010.53;;;31.19;63.10
37170;BME280;23062;13.952;100.608;2023-09-12T16:08:47;1010.51;;;31.17;62.93
37170;BME280;23062;13.952;100.608;2023-09-12T16:13:32;1010.46;;;31.18;62.96
37170;BME280;23062;13.952;100.608;2023-09-12T16:18:09;1010.48;;;31.19;62.80
37170;BME280;23062;13.952;100.608;2023-09-12T16:22:45;1010.46;;;31.17;62.68
37170;BME280;23062;13.952;100.608;2023-09-12T16:27:26;1010.44;;;31.16;62.56
37170;BME280;23062;13.952;100.608;2023-09-12T16:32:09;1010.37;;;31.15;62.76
37170;BME280;23062;13.952;100.608;2023-09-12T16:36:52;1010.38;;;31.16;62.87
37170;BME280;23062;13.952;100.608;2023-09-12T16:41:33;1010.32;;;31.16;62.71
37170;BME280;23062;13.952;100.608;2023-09-12T16:46:17;1010.26;;;31.13;62.49
37170;BME280;23062;13.952;100.608;2023-09-12T16:50:59;1010.19;;;31.14;62.47
37170;BME280;23062;13.952;100.608;2023-09-12T16:55:36;1010.14;;;31.13;62.40
37170;BME280;23062;13.952;100.608;2023-09-12T17:00:21;1010.14;;;31.12;62.42
37170;BME280;23062;13.952;100.608;2023-09-12T17:04:58;1010.14;;;31.12;62.32
37170;BME280;23062;13.952;100.608;2023-09-12T17:09:41;1010.22;;;31.11;62.26
37170;BME280;23062;13.952;100.608;2023-09-12T17:14:18;1010.18;;;31.11;62.35
37170;BME280;23062;13.952;100.608;2023-09-12T17:18:59;1010.13;;;31.11;62.24
37170;BME280;23062;13.952;100.608;2023-09-12T17:23:43;1010.05;;;31.11;62.43
37170;BME280;23062;13.952;100.608;2023-09-12T17:28:26;1010.06;;;31.11;62.49
37170;BME280;23062;13.952;100.608;2023-09-12T17:33:09;1010.01;;;31.09;62.47
37170;BME280;23062;13.952;100.608;2023-09-12T17:37:52;1010.03;;;31.10;62.51
37170;BME280;23062;13.952;100.608;2023-09-12T17:42:36;1009.95;;;31.10;62.47
37170;BME280;23062;13.952;100.608;2023-09-12T17:47:14;1009.85;;;31.09;62.67
37170;BME280;23062;13.952;100.608;2023-09-12T17:51:57;1009.83;;;31.09;62.98
37170;BME280;23062;13.952;100.608;2023-09-12T17:56:33;1009.81;;;31.08;63.21
37170;BME280;23062;13.952;100.608;2023-09-12T18:01:16;1009.76;;;31.08;63.03
37170;BME280;23062;13.952;100.608;2023-09-12T18:05:53;1009.73;;;31.08;63.05
37170;BME280;23062;13.952;100.608;2023-09-12T18:10:38;1009.73;;;31.06;62.99
37170;BME280;23062;13.952;100.608;2023-09-12T18:15:23;1009.77;;;31.05;62.95
37170;BME280;23062;13.952;100.608;2023-09-12T18:20:01;1009.67;;;31.04;62.88
37170;BME280;23062;13.952;100.608;2023-09-12T18:24:37;1009.56;;;31.04;63.13
37170;BME280;23062;13.952;100.608;2023-09-12T18:29:21;1009.65;;;31.05;63.06
37170;BME280;23062;13.952;100.608;2023-09-12T18:34:05;1009.61;;;31.04;63.09
37170;BME280;23062;13.952;100.608;2023-09-12T18:38:49;1009.55;;;31.03;63.32
37170;BME280;23062;13.952;100.608;2023-09-12T18:43:32;1009.47;;;31.03;63.46
37170;BME280;23062;13.952;100.608;2023-09-12T18:48:15;1009.39;;;31.03;63.31
37170;BME280;23062;13.952;100.608;2023-09-12T18:52:54;1009.32;;;31.03;63.45
37170;BME280;23062;13.952;100.608;2023-09-12T18:57:38;1009.31;;;31.01;63.59
37170;BME280;23062;13.952;100.608;2023-09-12T19:02:17;1009.26;;;31.01;63.32
37170;BME280;23062;13.952;100.608;2023-09-12T19:07:00;1009.23;;;31.00;63.39
37170;BME280;23062;13.952;100.608;2023-09-12T19:11:44;1009.29;;;31.00;63.37
37170;BME280;23062;13.952;100.608;2023-09-12T19:16:29;1009.20;;;31.00;63.50
37170;BME280;23062;13.952;100.608;2023-09-12T19:21:05;1009.11;;;30.99;63.35
37170;BME280;23062;13.952;100.608;2023-09-12T19:25:50;1009.03;;;30.96;63.03
37170;BME280;23062;13.952;100.608;2023-09-12T19:30:35;1009.00;;;30.95;63.17
37170;BME280;23062;13.952;100.608;2023-09-12T19:35:17;1008.88;;;30.94;63.09
37170;BME280;23062;13.952;100.608;2023-09-12T19:40:02;1008.84;;;30.93;63.17
37170;BME280;23062;13.952;100.608;2023-09-12T19:44:41;1008.82;;;30.93;63.20
37170;BME280;23062;13.952;100.608;2023-09-12T19:49:27;1008.79;;;30.96;63.15
37170;BME280;23062;13.952;100.608;2023-09-12T19:54:11;1008.72;;;30.94;63.14
37170;BME280;23062;13.952;100.608;2023-09-12T19:58:54;1008.64;;;30.91;63.34
37170;BME280;23062;13.952;100.608;2023-09-12T20:03:35;1008.65;;;30.92;63.00
37170;BME280;23062;13.952;100.608;2023-09-12T20:08:19;1008.70;;;30.90;62.88
37170;BME280;23062;13.952;100.608;2023-09-12T20:13:02;1008.69;;;30.91;62.93
37170;BME280;23062;13.952;100.608;2023-09-12T20:17:47;1008.69;;;30.91;63.10
37170;BME280;23062;13.952;100.608;2023-09-12T20:22:30;1008.70;;;30.86;63.21
37170;BME280;23062;13.952;100.608;2023-09-12T20:27:14;1008.80;;;30.88;63.13
37170;BME280;23062;13.952;100.608;2023-09-12T20:31:58;1008.85;;;30.87;63.03
37170;BME280;23062;13.952;100.608;2023-09-12T20:36:42;1008.86;;;30.88;63.03
37170;BME280;23062;13.952;100.608;2023-09-12T20:41:28;1008.83;;;30.87;62.98
37170;BME280;23062;13.952;100.608;2023-09-12T20:46:12;1008.80;;;30.88;63.25
37170;BME280;23062;13.952;100.608;2023-09-12T20:50:57;1008.74;;;30.83;63.08
37170;BME280;23062;13.952;100.608;2023-09-12T20:55:42;1008.81;;;30.86;63.29
37170;BME280;23062;13.952;100.608;2023-09-12T21:00:26;1008.82;;;30.85;63.15
37170;BME280;23062;13.952;100.608;2023-09-12T21:05:09;1008.80;;;30.84;63.41
37170;BME280;23062;13.952;100.608;2023-09-12T21:09:54;1008.86;;;30.88;63.47
37170;BME280;23062;13.952;100.608;2023-09-12T21:14:41;1008.89;;;30.84;63.72
37170;BME280;23062;13.952;100.608;2023-09-12T21:19:24;1008.83;;;30.81;63.88
37170;BME280;23062;13.952;100.608;2023-09-12T21:24:10;1008.82;;;30.78;64.02
37170;BME280;23062;13.952;100.608;2023-09-12T21:28:55;1008.79;;;30.77;64.00
37170;BME280;23062;13.952;100.608;2023-09-12T21:33:42;1008.82;;;30.78;64.11
37170;BME280;23062;13.952;100.608;2023-09-12T21:38:19;1008.84;;;30.74;64.27
37170;BME280;23062;13.952;100.608;2023-09-12T21:43:05;1008.77;;;30.69;64.38
37170;BME280;23062;13.952;100.608;2023-09-12T21:47:50;1008.80;;;30.69;64.47
37170;BME280;23062;13.952;100.608;2023-09-12T21:52:33;1008.90;;;30.69;64.66
37170;BME280;23062;13.952;100.608;2023-09-12T21:57:17;1008.88;;;30.70;65.11
37170;BME280;23062;13.952;100.608;2023-09-12T22:01:56;1008.99;;;30.70;65.22
37170;BME280;23062;13.952;100.608;2023-09-12T22:06:41;1008.95;;;30.65;65.49
37170;BME280;23062;13.952;100.608;2023-09-12T22:11:25;1008.96;;;30.31;66.45
37170;BME280;23062;13.952;100.608;2023-09-12T22:16:09;1008.96;;;30.03;67.60
37170;BME280;23062;13.952;100.608;2023-09-12T22:20:45;1008.98;;;29.90;68.27
37170;BME280;23062;13.952;100.608;2023-09-12T22:25:29;1008.97;;;29.88;68.83
37170;BME280;23062;13.952;100.608;2023-09-12T22:30:07;1009.03;;;29.81;68.91
37170;BME280;23062;13.952;100.608;2023-09-12T22:34:43;1009.07;;;29.66;69.31
37170;BME280;23062;13.952;100.608;2023-09-12T22:39:22;1009.05;;;29.82;68.73
37170;BME280;23062;13.952;100.608;2023-09-12T22:44:07;1009.09;;;29.92;68.47
37170;BME280;23062;13.952;100.608;2023-09-12T22:48:44;1009.10;;;29.89;68.67
37170;BME280;23062;13.952;100.608;2023-09-12T22:53:26;1009.18;;;29.89;68.97
37170;BME280;23062;13.952;100.608;2023-09-12T22:58:11;1009.22;;;30.01;68.60
37170;BME280;23062;13.952;100.608;2023-09-12T23:02:50;1009.24;;;30.06;68.01
37170;BME280;23062;13.952;100.608;2023-09-12T23:07:28;1009.29;;;30.05;68.50
37170;BME280;23062;13.952;100.608;2023-09-12T23:12:12;1009.36;;;30.05;68.34
37170;BME280;23062;13.952;100.608;2023-09-12T23:16:56;1009.38;;;30.09;68.57
37170;BME280;23062;13.952;100.608;2023-09-12T23:21:40;1009.44;;;30.08;68.80
37170;BME280;23062;13.952;100.608;2023-09-12T23:26:25;1009.54;;;30.12;68.50
37170;BME280;23062;13.952;100.608;2023-09-12T23:31:09;1009.59;;;30.14;68.51
37170;BME280;23062;13.952;100.608;2023-09-12T23:35:53;1009.66;;;30.15;68.33
37170;BME280;23062;13.952;100.608;2023-09-12T23:40:38;1009.73;;;30.14;68.48
37170;BME280;23062;13.952;100.608;2023-09-12T23:45:23;1009.77;;;30.15;68.67
37170;BME280;23062;13.952;100.608;2023-09-12T23:49:59;1009.78;;;30.13;68.67
37170;BME280;23062;13.952;100.608;2023-09-12T23:54:43;1009.81;;;30.15;68.61
37170;BME280;23062;13.952;100.608;2023-09-12T23:59:27;1009.81;;;30.18;68.77
